sensor_id;sensor_type;location;lat;lon;timestamp;temperature;humidity
8095;DHT22;4090;49.270;8.696;2022-07-06T00:00:45;24.30;70.00
8095;DHT22;4090;49.270;8.696;2022-07-06T00:03:27;24.30;70.20
8095;DHT22;4090;49.270;8.696;2022-07-06T00:06:09;24.20;70.80
8095;DHT22;4090;49.270;8.696;2022-07-06T00:08:51;24.20;70.80
8095;DHT22;4090;49.270;8.696;2022-07-06T00:11:33;24.20;72.10
8095;DHT22;4090;49.270;8.696;2022-07-06T00:14:15;24.20;71.20
8095;DHT22;4090;49.270;8.696;2022-07-06T00:16:58;24.00;71.20
8095;DHT22;4090;49.270;8.696;2022-07-06T00:19:39;24.00;71.70
8095;DHT22;4090;49.270;8.696;2022-07-06T00:22:21;24.00;71.80
8095;DHT22;4090;49.270;8.696;2022-07-06T00:25:04;24.00;72.30
8095;DHT22;4090;49.270;8.696;2022-07-06T00:27:46;24.00;72.70
8095;DHT22;4090;49.270;8.696;2022-07-06T00:30:28;23.90;72.60
8095;DHT22;4090;49.270;8.696;2022-07-06T00:33:11;23.90;73.00
8095;DHT22;4090;49.270;8.696;2022-07-06T00:35:53;23.90;73.20
8095;DHT22;4090;49.270;8.696;2022-07-06T00:38:34;23.80;73.70
8095;DHT22;4090;49.270;8.696;2022-07-06T00:41:18;23.70;74.10
8095;DHT22;4090;49.270;8.696;2022-07-06T00:44:00;23.70;74.20
8095;DHT22;4090;49.270;8.696;2022-07-06T00:46:42;23.70;74.30
8095;DHT22;4090;49.270;8.696;2022-07-06T00:49:25;23.60;74.50
8095;DHT22;4090;49.270;8.696;2022-07-06T00:52:30;23.60;74.90
8095;DHT22;4090;49.270;8.696;2022-07-06T00:55:12;23.60;75.10
8095;DHT22;4090;49.270;8.696;2022-07-06T00:57:55;23.50;75.60
8095;DHT22;4090;49.270;8.696;2022-07-06T01:00:37;23.50;76.10
8095;DHT22;4090;49.270;8.696;2022-07-06T01:03:25;23.40;76.10
8095;DHT22;4090;49.270;8.696;2022-07-06T01:06:08;23.40;76.40
8095;DHT22;4090;49.270;8.696;2022-07-06T01:08:50;23.40;76.80
8095;DHT22;4090;49.270;8.696;2022-07-06T01:11:32;23.30;76.90
8095;DHT22;4090;49.270;8.696;2022-07-06T01:14:14;23.30;76.90
8095;DHT22;4090;49.270;8.696;2022-07-06T01:16:58;23.30;77.20
8095;DHT22;4090;49.270;8.696;2022-07-06T01:19:40;23.30;77.40
8095;DHT22;4090;49.270;8.696;2022-07-06T01:22:23;23.20;77.30
8095;DHT22;4090;49.270;8.696;2022-07-06T01:25:06;23.20;78.00
8095;DHT22;4090;49.270;8.696;2022-07-06T01:27:49;23.20;78.60
8095;DHT22;4090;49.270;8.696;2022-07-06T01:30:31;23.10;78.50
8095;DHT22;4090;49.270;8.696;2022-07-06T01:33:13;23.10;78.40
8095;DHT22;4090;49.270;8.696;2022-07-06T01:35:55;23.10;78.70
8095;DHT22;4090;49.270;8.696;2022-07-06T01:38:46;23.10;78.90
8095;DHT22;4090;49.270;8.696;2022-07-06T01:41:28;23.00;78.90
8095;DHT22;4090;49.270;8.696;2022-07-06T01:44:11;23.00;79.20
8095;DHT22;4090;49.270;8.696;2022-07-06T01:46:53;23.00;79.30
8095;DHT22;4090;49.270;8.696;2022-07-06T01:49:35;23.00;79.70
8095;DHT22;4090;49.270;8.696;2022-07-06T01:52:17;22.90;79.70
8095;DHT22;4090;49.270;8.696;2022-07-06T01:55:00;22.90;80.00
8095;DHT22;4090;49.270;8.696;2022-07-06T01:57:44;22.90;80.40
8095;DHT22;4090;49.270;8.696;2022-07-06T02:00:26;22.80;80.60
8095;DHT22;4090;49.270;8.696;2022-07-06T02:03:08;22.80;80.80
8095;DHT22;4090;49.270;8.696;2022-07-06T02:05:52;22.80;81.20
8095;DHT22;4090;49.270;8.696;2022-07-06T02:08:36;22.80;81.30
8095;DHT22;4090;49.270;8.696;2022-07-06T02:11:19;22.70;81.30
8095;DHT22;4090;49.270;8.696;2022-07-06T02:14:01;22.70;81.50
8095;DHT22;4090;49.270;8.696;2022-07-06T02:16:43;22.70;81.90
8095;DHT22;4090;49.270;8.696;2022-07-06T02:19:25;22.70;82.10
8095;DHT22;4090;49.270;8.696;2022-07-06T02:22:07;22.70;81.90
8095;DHT22;4090;49.270;8.696;2022-07-06T02:24:48;22.60;82.30
8095;DHT22;4090;49.270;8.696;2022-07-06T02:27:32;22.60;82.30
8095;DHT22;4090;49.270;8.696;2022-07-06T02:30:17;22.50;82.70
8095;DHT22;4090;49.270;8.696;2022-07-06T02:33:00;22.50;83.20
8095;DHT22;4090;49.270;8.696;2022-07-06T02:35:42;22.40;83.70
8095;DHT22;4090;49.270;8.696;2022-07-06T02:38:25;22.40;84.00
8095;DHT22;4090;49.270;8.696;2022-07-06T02:41:08;22.40;83.90
8095;DHT22;4090;49.270;8.696;2022-07-06T02:43:51;22.30;84.30
8095;DHT22;4090;49.270;8.696;2022-07-06T02:46:33;22.30;84.20
8095;DHT22;4090;49.270;8.696;2022-07-06T02:49:15;22.30;84.50
8095;DHT22;4090;49.270;8.696;2022-07-06T02:51:58;22.30;84.70
8095;DHT22;4090;49.270;8.696;2022-07-06T02:54:40;22.20;84.90
8095;DHT22;4090;49.270;8.696;2022-07-06T02:57:22;22.20;84.70
8095;DHT22;4090;49.270;8.696;2022-07-06T03:00:06;22.10;85.40
8095;DHT22;4090;49.270;8.696;2022-07-06T03:02:49;22.10;85.40
8095;DHT22;4090;49.270;8.696;2022-07-06T03:05:31;22.00;85.90
8095;DHT22;4090;49.270;8.696;2022-07-06T03:08:13;22.00;86.60
8095;DHT22;4090;49.270;8.696;2022-07-06T03:10:56;22.00;86.90
8095;DHT22;4090;49.270;8.696;2022-07-06T03:13:38;22.00;86.30
8095;DHT22;4090;49.270;8.696;2022-07-06T03:16:21;22.00;86.70
8095;DHT22;4090;49.270;8.696;2022-07-06T03:19:03;21.90;86.30
8095;DHT22;4090;49.270;8.696;2022-07-06T03:21:45;21.90;87.10
8095;DHT22;4090;49.270;8.696;2022-07-06T03:24:27;21.90;87.10
8095;DHT22;4090;49.270;8.696;2022-07-06T03:27:09;21.90;87.00
8095;DHT22;4090;49.270;8.696;2022-07-06T03:29:51;21.90;87.10
8095;DHT22;4090;49.270;8.696;2022-07-06T03:32:35;21.80;87.10
8095;DHT22;4090;49.270;8.696;2022-07-06T03:35:20;21.80;88.80
8095;DHT22;4090;49.270;8.696;2022-07-06T03:38:05;21.90;87.90
8095;DHT22;4090;49.270;8.696;2022-07-06T03:40:47;21.90;88.10
8095;DHT22;4090;49.270;8.696;2022-07-06T03:43:29;21.90;87.70
8095;DHT22;4090;49.270;8.696;2022-07-06T03:46:12;21.90;88.00
8095;DHT22;4090;49.270;8.696;2022-07-06T03:48:55;21.90;87.90
8095;DHT22;4090;49.270;8.696;2022-07-06T03:51:37;21.80;88.40
8095;DHT22;4090;49.270;8.696;2022-07-06T03:54:20;21.80;88.40
8095;DHT22;4090;49.270;8.696;2022-07-06T03:57:03;21.70;88.50
8095;DHT22;4090;49.270;8.696;2022-07-06T03:59:45;21.70;89.00
8095;DHT22;4090;49.270;8.696;2022-07-06T04:02:27;21.70;89.30
8095;DHT22;4090;49.270;8.696;2022-07-06T04:05:11;21.70;89.10
8095;DHT22;4090;49.270;8.696;2022-07-06T04:07:53;21.70;88.90
8095;DHT22;4090;49.270;8.696;2022-07-06T04:10:40;21.60;89.20
8095;DHT22;4090;49.270;8.696;2022-07-06T04:13:22;21.60;89.80
8095;DHT22;4090;49.270;8.696;2022-07-06T04:16:06;21.60;89.80
8095;DHT22;4090;49.270;8.696;2022-07-06T04:18:48;21.60;90.00
8095;DHT22;4090;49.270;8.696;2022-07-06T04:21:31;21.60;90.10
8095;DHT22;4090;49.270;8.696;2022-07-06T04:24:13;21.60;89.90
8095;DHT22;4090;49.270;8.696;2022-07-06T04:26:55;21.60;90.00
8095;DHT22;4090;49.270;8.696;2022-07-06T04:29:37;21.50;90.10
8095;DHT22;4090;49.270;8.696;2022-07-06T04:32:19;21.50;90.00
8095;DHT22;4090;49.270;8.696;2022-07-06T04:35:01;21.50;89.90
8095;DHT22;4090;49.270;8.696;2022-07-06T04:37:45;21.50;89.90
8095;DHT22;4090;49.270;8.696;2022-07-06T04:40:29;21.50;89.90
8095;DHT22;4090;49.270;8.696;2022-07-06T04:43:15;21.50;89.60
8095;DHT22;4090;49.270;8.696;2022-07-06T04:45:57;21.50;89.50
8095;DHT22;4090;49.270;8.696;2022-07-06T04:48:41;21.40;89.60
8095;DHT22;4090;49.270;8.696;2022-07-06T04:51:27;21.40;89.60
8095;DHT22;4090;49.270;8.696;2022-07-06T04:54:10;21.40;89.90
8095;DHT22;4090;49.270;8.696;2022-07-06T04:56:52;21.40;90.00
8095;DHT22;4090;49.270;8.696;2022-07-06T04:59:35;21.40;89.90
8095;DHT22;4090;49.270;8.696;2022-07-06T05:02:18;21.40;90.10
8095;DHT22;4090;49.270;8.696;2022-07-06T05:05:00;21.30;90.00
8095;DHT22;4090;49.270;8.696;2022-07-06T05:07:42;21.30;89.80
8095;DHT22;4090;49.270;8.696;2022-07-06T05:10:26;21.30;89.90
8095;DHT22;4090;49.270;8.696;2022-07-06T05:13:10;21.30;89.70
8095;DHT22;4090;49.270;8.696;2022-07-06T05:15:52;21.30;89.80
8095;DHT22;4090;49.270;8.696;2022-07-06T05:18:34;21.30;90.00
8095;DHT22;4090;49.270;8.696;2022-07-06T05:21:18;21.20;89.90
8095;DHT22;4090;49.270;8.696;2022-07-06T05:24:00;21.10;90.00
8095;DHT22;4090;49.270;8.696;2022-07-06T05:26:43;20.80;90.40
8095;DHT22;4090;49.270;8.696;2022-07-06T05:29:25;20.80;90.70
8095;DHT22;4090;49.270;8.696;2022-07-06T05:32:08;20.80;90.90
8095;DHT22;4090;49.270;8.696;2022-07-06T05:34:50;20.90;90.70
8095;DHT22;4090;49.270;8.696;2022-07-06T05:37:34;21.00;90.60
8095;DHT22;4090;49.270;8.696;2022-07-06T05:40:16;21.10;90.40
8095;DHT22;4090;49.270;8.696;2022-07-06T05:42:59;21.10;90.30
8095;DHT22;4090;49.270;8.696;2022-07-06T05:45:41;21.20;90.30
8095;DHT22;4090;49.270;8.696;2022-07-06T05:48:24;21.20;90.30
8095;DHT22;4090;49.270;8.696;2022-07-06T05:51:24;21.20;90.20
8095;DHT22;4090;49.270;8.696;2022-07-06T05:54:07;21.30;90.30
8095;DHT22;4090;49.270;8.696;2022-07-06T05:56:48;21.20;90.10
8095;DHT22;4090;49.270;8.696;2022-07-06T05:59:32;21.20;90.10
8095;DHT22;4090;49.270;8.696;2022-07-06T06:02:14;21.20;89.70
8095;DHT22;4090;49.270;8.696;2022-07-06T06:04:56;21.20;89.70
8095;DHT22;4090;49.270;8.696;2022-07-06T06:07:39;21.20;89.70
8095;DHT22;4090;49.270;8.696;2022-07-06T06:10:21;21.30;89.90
8095;DHT22;4090;49.270;8.696;2022-07-06T06:13:06;21.30;90.00
8095;DHT22;4090;49.270;8.696;2022-07-06T06:15:50;21.30;89.50
8095;DHT22;4090;49.270;8.696;2022-07-06T06:18:33;21.30;89.90
8095;DHT22;4090;49.270;8.696;2022-07-06T06:21:14;21.30;90.20
8095;DHT22;4090;49.270;8.696;2022-07-06T06:23:56;21.30;90.10
8095;DHT22;4090;49.270;8.696;2022-07-06T06:26:38;21.30;90.10
8095;DHT22;4090;49.270;8.696;2022-07-06T06:29:20;21.30;90.10
8095;DHT22;4090;49.270;8.696;2022-07-06T06:32:03;21.30;90.10
8095;DHT22;4090;49.270;8.696;2022-07-06T06:34:46;21.30;90.00
8095;DHT22;4090;49.270;8.696;2022-07-06T06:37:28;21.30;90.00
8095;DHT22;4090;49.270;8.696;2022-07-06T06:40:10;21.30;90.00
8095;DHT22;4090;49.270;8.696;2022-07-06T06:42:52;21.30;90.10
8095;DHT22;4090;49.270;8.696;2022-07-06T06:45:34;21.30;90.10
8095;DHT22;4090;49.270;8.696;2022-07-06T06:48:17;21.30;90.30
8095;DHT22;4090;49.270;8.696;2022-07-06T06:50:59;21.30;90.20
8095;DHT22;4090;49.270;8.696;2022-07-06T06:53:41;21.30;90.20
8095;DHT22;4090;49.270;8.696;2022-07-06T06:56:23;21.30;90.30
8095;DHT22;4090;49.270;8.696;2022-07-06T06:59:05;21.30;90.30
8095;DHT22;4090;49.270;8.696;2022-07-06T07:01:46;21.30;90.40
8095;DHT22;4090;49.270;8.696;2022-07-06T07:04:30;21.30;90.50
8095;DHT22;4090;49.270;8.696;2022-07-06T07:07:11;21.30;90.60
8095;DHT22;4090;49.270;8.696;2022-07-06T07:09:53;21.30;90.50
8095;DHT22;4090;49.270;8.696;2022-07-06T07:12:41;21.30;90.50
8095;DHT22;4090;49.270;8.696;2022-07-06T07:15:23;21.40;91.00
8095;DHT22;4090;49.270;8.696;2022-07-06T07:18:05;21.40;90.60
8095;DHT22;4090;49.270;8.696;2022-07-06T07:20:48;21.40;90.50
8095;DHT22;4090;49.270;8.696;2022-07-06T07:23:30;21.40;90.40
8095;DHT22;4090;49.270;8.696;2022-07-06T07:26:12;21.40;90.50
8095;DHT22;4090;49.270;8.696;2022-07-06T07:28:54;21.40;90.60
8095;DHT22;4090;49.270;8.696;2022-07-06T07:31:35;21.40;90.80
8095;DHT22;4090;49.270;8.696;2022-07-06T07:34:17;21.50;90.70
8095;DHT22;4090;49.270;8.696;2022-07-06T07:37:00;21.50;90.80
8095;DHT22;4090;49.270;8.696;2022-07-06T07:39:42;21.50;91.00
8095;DHT22;4090;49.270;8.696;2022-07-06T07:42:24;21.50;90.90
8095;DHT22;4090;49.270;8.696;2022-07-06T07:45:06;21.50;90.80
8095;DHT22;4090;49.270;8.696;2022-07-06T07:47:48;21.50;90.90
8095;DHT22;4090;49.270;8.696;2022-07-06T07:50:30;21.60;90.80
8095;DHT22;4090;49.270;8.696;2022-07-06T07:53:13;21.60;90.70
8095;DHT22;4090;49.270;8.696;2022-07-06T07:55:55;21.60;90.70
8095;DHT22;4090;49.270;8.696;2022-07-06T07:58:37;21.70;90.50
8095;DHT22;4090;49.270;8.696;2022-07-06T08:01:19;21.70;90.40
8095;DHT22;4090;49.270;8.696;2022-07-06T08:04:01;21.70;90.30
8095;DHT22;4090;49.270;8.696;2022-07-06T08:06:43;21.80;90.20
8095;DHT22;4090;49.270;8.696;2022-07-06T08:09:26;21.80;90.20
8095;DHT22;4090;49.270;8.696;2022-07-06T08:12:09;21.80;90.20
8095;DHT22;4090;49.270;8.696;2022-07-06T08:14:51;21.80;90.10
8095;DHT22;4090;49.270;8.696;2022-07-06T08:17:32;21.80;90.00
8095;DHT22;4090;49.270;8.696;2022-07-06T08:20:14;21.90;90.00
8095;DHT22;4090;49.270;8.696;2022-07-06T08:22:56;21.90;89.80
8095;DHT22;4090;49.270;8.696;2022-07-06T08:25:39;21.90;89.50
8095;DHT22;4090;49.270;8.696;2022-07-06T08:28:21;21.90;89.60
8095;DHT22;4090;49.270;8.696;2022-07-06T08:31:03;21.90;89.70
8095;DHT22;4090;49.270;8.696;2022-07-06T08:33:45;22.00;89.30
8095;DHT22;4090;49.270;8.696;2022-07-06T08:36:28;22.00;88.60
8095;DHT22;4090;49.270;8.696;2022-07-06T08:39:10;22.00;89.10
8095;DHT22;4090;49.270;8.696;2022-07-06T08:41:55;22.00;88.70
8095;DHT22;4090;49.270;8.696;2022-07-06T08:44:38;22.00;88.50
8095;DHT22;4090;49.270;8.696;2022-07-06T08:47:21;22.10;88.70
8095;DHT22;4090;49.270;8.696;2022-07-06T08:50:05;22.10;88.70
8095;DHT22;4090;49.270;8.696;2022-07-06T08:52:47;22.10;89.00
8095;DHT22;4090;49.270;8.696;2022-07-06T08:55:30;22.20;88.60
8095;DHT22;4090;49.270;8.696;2022-07-06T08:58:14;22.20;88.60
8095;DHT22;4090;49.270;8.696;2022-07-06T09:00:56;22.20;88.70
8095;DHT22;4090;49.270;8.696;2022-07-06T09:03:40;22.20;88.20
8095;DHT22;4090;49.270;8.696;2022-07-06T09:06:24;22.30;88.00
8095;DHT22;4090;49.270;8.696;2022-07-06T09:09:06;22.30;88.10
8095;DHT22;4090;49.270;8.696;2022-07-06T09:11:49;22.30;87.50
8095;DHT22;4090;49.270;8.696;2022-07-06T09:14:32;22.30;87.50
8095;DHT22;4090;49.270;8.696;2022-07-06T09:17:14;22.40;87.80
8095;DHT22;4090;49.270;8.696;2022-07-06T09:19:56;22.50;87.80
8095;DHT22;4090;49.270;8.696;2022-07-06T09:22:38;22.50;87.20
8095;DHT22;4090;49.270;8.696;2022-07-06T09:25:21;22.60;87.30
8095;DHT22;4090;49.270;8.696;2022-07-06T09:28:03;22.60;87.30
8095;DHT22;4090;49.270;8.696;2022-07-06T09:30:47;22.60;86.80
8095;DHT22;4090;49.270;8.696;2022-07-06T09:33:29;22.70;86.70
8095;DHT22;4090;49.270;8.696;2022-07-06T09:36:11;22.70;86.20
8095;DHT22;4090;49.270;8.696;2022-07-06T09:38:52;22.80;86.90
8095;DHT22;4090;49.270;8.696;2022-07-06T09:41:35;22.80;86.30
8095;DHT22;4090;49.270;8.696;2022-07-06T09:44:22;22.80;85.20
8095;DHT22;4090;49.270;8.696;2022-07-06T09:47:07;22.80;85.20
8095;DHT22;4090;49.270;8.696;2022-07-06T09:49:49;22.80;84.90
8095;DHT22;4090;49.270;8.696;2022-07-06T09:52:34;22.90;84.90
8095;DHT22;4090;49.270;8.696;2022-07-06T09:55:16;22.90;84.90
8095;DHT22;4090;49.270;8.696;2022-07-06T09:57:58;23.00;84.50
8095;DHT22;4090;49.270;8.696;2022-07-06T10:00:39;23.00;83.60
8095;DHT22;4090;49.270;8.696;2022-07-06T10:03:23;23.10;83.30
8095;DHT22;4090;49.270;8.696;2022-07-06T10:06:06;23.10;83.70
8095;DHT22;4090;49.270;8.696;2022-07-06T10:08:48;23.20;83.40
8095;DHT22;4090;49.270;8.696;2022-07-06T10:11:34;23.30;83.30
8095;DHT22;4090;49.270;8.696;2022-07-06T10:14:18;23.30;82.60
8095;DHT22;4090;49.270;8.696;2022-07-06T10:17:02;23.30;81.40
8095;DHT22;4090;49.270;8.696;2022-07-06T10:19:47;23.40;81.30
8095;DHT22;4090;49.270;8.696;2022-07-06T10:22:30;23.40;81.20
8095;DHT22;4090;49.270;8.696;2022-07-06T10:25:12;23.50;81.10
8095;DHT22;4090;49.270;8.696;2022-07-06T10:27:55;23.50;81.00
8095;DHT22;4090;49.270;8.696;2022-07-06T10:30:37;23.60;80.60
8095;DHT22;4090;49.270;8.696;2022-07-06T10:33:20;23.70;80.00
8095;DHT22;4090;49.270;8.696;2022-07-06T10:36:04;23.70;79.10
8095;DHT22;4090;49.270;8.696;2022-07-06T10:38:49;23.80;78.50
8095;DHT22;4090;49.270;8.696;2022-07-06T10:41:32;23.90;78.70
8095;DHT22;4090;49.270;8.696;2022-07-06T10:44:17;24.00;78.40
8095;DHT22;4090;49.270;8.696;2022-07-06T10:46:59;24.10;78.20
8095;DHT22;4090;49.270;8.696;2022-07-06T10:49:48;24.20;77.20
8095;DHT22;4090;49.270;8.696;2022-07-06T10:52:50;24.30;77.30
8095;DHT22;4090;49.270;8.696;2022-07-06T10:55:34;24.40;76.90
8095;DHT22;4090;49.270;8.696;2022-07-06T10:58:41;24.50;76.20
8095;DHT22;4090;49.270;8.696;2022-07-06T11:01:28;24.60;75.10
8095;DHT22;4090;49.270;8.696;2022-07-06T11:04:10;24.70;75.50
8095;DHT22;4090;49.270;8.696;2022-07-06T11:06:52;24.80;74.90
8095;DHT22;4090;49.270;8.696;2022-07-06T11:09:35;24.90;73.70
8095;DHT22;4090;49.270;8.696;2022-07-06T11:12:18;25.00;73.10
8095;DHT22;4090;49.270;8.696;2022-07-06T11:15:00;25.10;72.40
8095;DHT22;4090;49.270;8.696;2022-07-06T11:18:12;25.10;73.10
8095;DHT22;4090;49.270;8.696;2022-07-06T11:21:19;25.10;71.60
8095;DHT22;4090;49.270;8.696;2022-07-06T11:24:03;25.20;71.90
8095;DHT22;4090;49.270;8.696;2022-07-06T11:26:50;25.30;72.20
8095;DHT22;4090;49.270;8.696;2022-07-06T11:29:33;25.30;70.90
8095;DHT22;4090;49.270;8.696;2022-07-06T11:32:23;25.40;70.50
8095;DHT22;4090;49.270;8.696;2022-07-06T11:35:05;25.50;70.00
8095;DHT22;4090;49.270;8.696;2022-07-06T11:37:47;25.60;69.80
8095;DHT22;4090;49.270;8.696;2022-07-06T11:40:29;25.70;68.20
8095;DHT22;4090;49.270;8.696;2022-07-06T11:43:13;25.70;68.00
8095;DHT22;4090;49.270;8.696;2022-07-06T11:45:55;25.80;67.50
8095;DHT22;4090;49.270;8.696;2022-07-06T11:48:37;25.90;68.10
8095;DHT22;4090;49.270;8.696;2022-07-06T11:51:19;25.90;67.70
8095;DHT22;4090;49.270;8.696;2022-07-06T11:54:07;26.00;67.50
8095;DHT22;4090;49.270;8.696;2022-07-06T11:56:50;26.00;67.00
8095;DHT22;4090;49.270;8.696;2022-07-06T11:59:36;26.00;67.50
8095;DHT22;4090;49.270;8.696;2022-07-06T12:02:18;26.20;68.50
8095;DHT22;4090;49.270;8.696;2022-07-06T12:05:00;26.20;67.70
8095;DHT22;4090;49.270;8.696;2022-07-06T12:07:41;26.20;66.40
8095;DHT22;4090;49.270;8.696;2022-07-06T12:10:31;26.20;66.50
8095;DHT22;4090;49.270;8.696;2022-07-06T12:13:13;26.30;66.00
8095;DHT22;4090;49.270;8.696;2022-07-06T12:15:57;26.30;65.50
8095;DHT22;4090;49.270;8.696;2022-07-06T12:18:39;26.50;65.70
8095;DHT22;4090;49.270;8.696;2022-07-06T12:21:21;26.60;65.00
8095;DHT22;4090;49.270;8.696;2022-07-06T12:24:07;26.60;65.00
8095;DHT22;4090;49.270;8.696;2022-07-06T12:26:50;26.80;64.80
8095;DHT22;4090;49.270;8.696;2022-07-06T12:29:32;26.90;63.70
8095;DHT22;4090;49.270;8.696;2022-07-06T12:32:16;27.00;63.90
8095;DHT22;4090;49.270;8.696;2022-07-06T12:35:02;27.10;63.20
8095;DHT22;4090;49.270;8.696;2022-07-06T12:37:54;27.10;63.20
8095;DHT22;4090;49.270;8.696;2022-07-06T12:40:37;27.30;62.90
8095;DHT22;4090;49.270;8.696;2022-07-06T12:43:35;27.30;61.80
8095;DHT22;4090;49.270;8.696;2022-07-06T12:46:26;27.30;61.80
8095;DHT22;4090;49.270;8.696;2022-07-06T12:49:16;27.40;61.30
8095;DHT22;4090;49.270;8.696;2022-07-06T12:52:00;27.50;61.60
8095;DHT22;4090;49.270;8.696;2022-07-06T12:54:45;27.50;60.50
8095;DHT22;4090;49.270;8.696;2022-07-06T12:57:42;27.60;60.00
8095;DHT22;4090;49.270;8.696;2022-07-06T13:00:25;27.50;60.30
8095;DHT22;4090;49.270;8.696;2022-07-06T13:03:07;27.60;60.50
8095;DHT22;4090;49.270;8.696;2022-07-06T13:05:50;27.70;59.70
8095;DHT22;4090;49.270;8.696;2022-07-06T13:08:32;27.70;59.10
8095;DHT22;4090;49.270;8.696;2022-07-06T13:11:14;27.80;59.30
8095;DHT22;4090;49.270;8.696;2022-07-06T13:13:56;27.90;58.50
8095;DHT22;4090;49.270;8.696;2022-07-06T13:16:37;28.00;58.30
8095;DHT22;4090;49.270;8.696;2022-07-06T13:19:19;28.00;58.80
8095;DHT22;4090;49.270;8.696;2022-07-06T13:22:03;28.10;58.70
8095;DHT22;4090;49.270;8.696;2022-07-06T13:24:45;28.10;58.40
8095;DHT22;4090;49.270;8.696;2022-07-06T13:27:26;28.20;58.00
8095;DHT22;4090;49.270;8.696;2022-07-06T13:30:09;28.30;58.20
8095;DHT22;4090;49.270;8.696;2022-07-06T13:32:51;28.30;56.40
8095;DHT22;4090;49.270;8.696;2022-07-06T13:35:33;28.50;57.50
8095;DHT22;4090;49.270;8.696;2022-07-06T13:38:16;28.50;57.20
8095;DHT22;4090;49.270;8.696;2022-07-06T13:40:58;28.50;57.20
8095;DHT22;4090;49.270;8.696;2022-07-06T13:43:40;28.60;57.40
8095;DHT22;4090;49.270;8.696;2022-07-06T13:46:22;28.70;56.70
8095;DHT22;4090;49.270;8.696;2022-07-06T13:49:04;28.80;55.50
8095;DHT22;4090;49.270;8.696;2022-07-06T13:51:46;28.80;55.40
8095;DHT22;4090;49.270;8.696;2022-07-06T13:54:29;28.90;56.00
8095;DHT22;4090;49.270;8.696;2022-07-06T13:57:11;28.90;54.90
8095;DHT22;4090;49.270;8.696;2022-07-06T13:59:53;29.00;54.90
8095;DHT22;4090;49.270;8.696;2022-07-06T14:02:35;29.00;55.10
8095;DHT22;4090;49.270;8.696;2022-07-06T14:05:17;29.10;54.10
8095;DHT22;4090;49.270;8.696;2022-07-06T14:07:58;29.20;54.40
8095;DHT22;4090;49.270;8.696;2022-07-06T14:10:42;29.30;53.60
8095;DHT22;4090;49.270;8.696;2022-07-06T14:13:23;29.30;53.90
8095;DHT22;4090;49.270;8.696;2022-07-06T14:16:06;29.30;53.70
8095;DHT22;4090;49.270;8.696;2022-07-06T14:18:48;29.30;53.70
8095;DHT22;4090;49.270;8.696;2022-07-06T14:21:30;29.40;52.80
8095;DHT22;4090;49.270;8.696;2022-07-06T14:24:11;29.40;53.20
8095;DHT22;4090;49.270;8.696;2022-07-06T14:26:55;29.50;53.40
8095;DHT22;4090;49.270;8.696;2022-07-06T14:29:36;29.60;52.90
8095;DHT22;4090;49.270;8.696;2022-07-06T14:32:18;29.60;52.80
8095;DHT22;4090;49.270;8.696;2022-07-06T14:35:00;29.60;52.80
8095;DHT22;4090;49.270;8.696;2022-07-06T14:37:42;29.60;52.60
8095;DHT22;4090;49.270;8.696;2022-07-06T14:40:24;29.60;52.10
8095;DHT22;4090;49.270;8.696;2022-07-06T14:43:07;29.50;51.90
8095;DHT22;4090;49.270;8.696;2022-07-06T14:45:49;29.50;51.60
8095;DHT22;4090;49.270;8.696;2022-07-06T14:48:31;29.40;52.50
8095;DHT22;4090;49.270;8.696;2022-07-06T14:51:13;29.40;53.00
8095;DHT22;4090;49.270;8.696;2022-07-06T14:53:54;29.40;52.70
8095;DHT22;4090;49.270;8.696;2022-07-06T14:56:36;29.40;53.30
8095;DHT22;4090;49.270;8.696;2022-07-06T14:59:19;29.40;53.40
8095;DHT22;4090;49.270;8.696;2022-07-06T15:02:02;29.40;53.00
8095;DHT22;4090;49.270;8.696;2022-07-06T15:04:44;29.40;53.20
8095;DHT22;4090;49.270;8.696;2022-07-06T15:07:25;29.30;53.90
8095;DHT22;4090;49.270;8.696;2022-07-06T15:10:08;29.30;53.60
8095;DHT22;4090;49.270;8.696;2022-07-06T15:12:50;29.20;53.00
8095;DHT22;4090;49.270;8.696;2022-07-06T15:15:33;29.10;53.20
8095;DHT22;4090;49.270;8.696;2022-07-06T15:18:15;29.10;53.80
8095;DHT22;4090;49.270;8.696;2022-07-06T15:20:57;29.00;53.70
8095;DHT22;4090;49.270;8.696;2022-07-06T15:23:39;29.00;54.10
8095;DHT22;4090;49.270;8.696;2022-07-06T15:26:22;29.00;54.40
8095;DHT22;4090;49.270;8.696;2022-07-06T15:29:05;28.90;53.80
8095;DHT22;4090;49.270;8.696;2022-07-06T15:31:48;28.80;54.10
8095;DHT22;4090;49.270;8.696;2022-07-06T15:34:30;28.80;54.10
8095;DHT22;4090;49.270;8.696;2022-07-06T15:37:12;28.70;54.00
8095;DHT22;4090;49.270;8.696;2022-07-06T15:39:54;28.70;54.40
8095;DHT22;4090;49.270;8.696;2022-07-06T15:42:35;28.60;54.70
8095;DHT22;4090;49.270;8.696;2022-07-06T15:45:17;28.50;54.50
8095;DHT22;4090;49.270;8.696;2022-07-06T15:48:03;28.50;54.20
8095;DHT22;4090;49.270;8.696;2022-07-06T15:50:45;28.40;54.90
8095;DHT22;4090;49.270;8.696;2022-07-06T15:53:27;28.30;54.00
8095;DHT22;4090;49.270;8.696;2022-07-06T15:56:09;28.20;54.80
8095;DHT22;4090;49.270;8.696;2022-07-06T15:58:51;28.20;54.90
8095;DHT22;4090;49.270;8.696;2022-07-06T16:01:33;28.20;55.60
8095;DHT22;4090;49.270;8.696;2022-07-06T16:04:16;28.10;55.10
8095;DHT22;4090;49.270;8.696;2022-07-06T16:06:58;28.10;55.20
8095;DHT22;4090;49.270;8.696;2022-07-06T16:09:40;28.10;55.90
8095;DHT22;4090;49.270;8.696;2022-07-06T16:12:21;28.00;55.40
8095;DHT22;4090;49.270;8.696;2022-07-06T16:15:04;28.00;55.50
8095;DHT22;4090;49.270;8.696;2022-07-06T16:17:46;27.90;56.80
8095;DHT22;4090;49.270;8.696;2022-07-06T16:20:30;27.90;56.50
8095;DHT22;4090;49.270;8.696;2022-07-06T16:23:11;27.90;55.70
8095;DHT22;4090;49.270;8.696;2022-07-06T16:25:53;27.80;56.10
8095;DHT22;4090;49.270;8.696;2022-07-06T16:28:35;27.70;55.80
8095;DHT22;4090;49.270;8.696;2022-07-06T16:31:17;27.70;56.30
8095;DHT22;4090;49.270;8.696;2022-07-06T16:33:59;27.60;56.30
8095;DHT22;4090;49.270;8.696;2022-07-06T16:36:42;27.60;55.90
8095;DHT22;4090;49.270;8.696;2022-07-06T16:39:25;27.50;56.10
8095;DHT22;4090;49.270;8.696;2022-07-06T16:42:07;27.50;56.20
8095;DHT22;4090;49.270;8.696;2022-07-06T16:44:49;27.40;56.00
8095;DHT22;4090;49.270;8.696;2022-07-06T16:47:31;27.40;56.10
8095;DHT22;4090;49.270;8.696;2022-07-06T16:50:13;27.30;56.30
8095;DHT22;4090;49.270;8.696;2022-07-06T16:52:56;27.30;56.20
8095;DHT22;4090;49.270;8.696;2022-07-06T16:55:39;27.30;56.10
8095;DHT22;4090;49.270;8.696;2022-07-06T16:58:21;27.20;56.10
8095;DHT22;4090;49.270;8.696;2022-07-06T17:01:03;27.20;56.30
8095;DHT22;4090;49.270;8.696;2022-07-06T17:03:44;27.20;56.60
8095;DHT22;4090;49.270;8.696;2022-07-06T17:06:27;27.10;56.70
8095;DHT22;4090;49.270;8.696;2022-07-06T17:09:10;27.10;57.20
8095;DHT22;4090;49.270;8.696;2022-07-06T17:11:52;27.10;57.20
8095;DHT22;4090;49.270;8.696;2022-07-06T17:14:34;27.10;56.80
8095;DHT22;4090;49.270;8.696;2022-07-06T17:17:15;27.00;56.70
8095;DHT22;4090;49.270;8.696;2022-07-06T17:19:57;27.00;56.80
8095;DHT22;4090;49.270;8.696;2022-07-06T17:22:39;26.90;56.70
8095;DHT22;4090;49.270;8.696;2022-07-06T17:25:23;26.90;56.90
8095;DHT22;4090;49.270;8.696;2022-07-06T17:28:05;26.80;57.40
8095;DHT22;4090;49.270;8.696;2022-07-06T17:30:47;26.80;57.20
8095;DHT22;4090;49.270;8.696;2022-07-06T17:33:29;26.80;57.20
8095;DHT22;4090;49.270;8.696;2022-07-06T17:36:11;26.70;57.10
8095;DHT22;4090;49.270;8.696;2022-07-06T17:38:53;26.60;57.20
8095;DHT22;4090;49.270;8.696;2022-07-06T17:41:36;26.60;57.50
8095;DHT22;4090;49.270;8.696;2022-07-06T17:44:18;26.50;58.50